Terminal Aerodrome Forecast
Issued by NWS Mt. Holly, NJ

Home | Current Version | Previous Version | Text Only | Print | Product List | Glossary On
Versions: 1 2 3 4 5 6 7 8 9 10 11 12 13 14 15 16 17 18 19 20 21 22 23 24 25 26 27 28 29 30
245
FTUS41 KPHI 100857 AAA
TAFPHL
TAF AMD
KPHL 100857Z 1009/1112 27004KT P6SM OVC050
      TEMPO 1009/1011 4SM BR BKN015 OVC050
     FM101200 29012KT P6SM SCT020 BKN050
     FM101400 28015G25KT P6SM SCT050
     FM102300 27011KT P6SM BKN060=

USA.gov is the U.S. government's official web portal to all federal, state and local government web resources and services.